createdAt,value
2022-08-30T00:02:11.469Z,80.60
2022-08-30T00:04:39.147Z,80.70
2022-08-30T00:07:06.135Z,80.70
2022-08-30T00:09:33.328Z,80.80
2022-08-30T00:12:00.650Z,80.90
2022-08-30T00:14:27.684Z,80.90
2022-08-30T00:16:55.451Z,80.90
2022-08-30T00:19:22.499Z,80.80
2022-08-30T00:21:49.428Z,80.80
2022-08-30T00:24:16.410Z,80.80
2022-08-30T00:26:43.380Z,80.80
2022-08-30T00:29:10.344Z,80.90
2022-08-30T00:31:37.327Z,81.00
2022-08-30T00:34:05.150Z,80.90
2022-08-30T00:36:32.110Z,80.80
2022-08-30T00:38:59.049Z,80.70
2022-08-30T00:41:26.000Z,80.70
2022-08-30T00:43:52.918Z,80.90
2022-08-30T00:46:19.961Z,81.20
2022-08-30T00:48:49.039Z,81.20
2022-08-30T00:51:17.142Z,81.40
2022-08-30T00:53:50.916Z,81.40
2022-08-30T00:56:18.236Z,81.50
2022-08-30T00:58:49.954Z,81.40
2022-08-30T01:01:17.386Z,81.40
2022-08-30T01:03:45.395Z,81.70
2022-08-30T01:06:16.898Z,81.50
2022-08-30T01:08:45.857Z,81.60
2022-08-30T01:11:16.202Z,81.70
2022-08-30T01:13:47.128Z,81.70
2022-08-30T01:16:15.209Z,81.70
2022-08-30T01:18:43.547Z,81.70
2022-08-30T01:21:21.516Z,81.60
2022-08-30T01:23:50.346Z,81.50
2022-08-30T01:26:19.796Z,81.40
2022-08-30T01:28:53.424Z,81.40
2022-08-30T01:31:20.569Z,81.30
2022-08-30T01:33:47.630Z,81.20
2022-08-30T01:36:15.449Z,81.10
2022-08-30T01:38:55.279Z,81.00
2022-08-30T01:41:29.238Z,81.00
2022-08-30T01:43:58.507Z,81.20
2022-08-30T01:46:46.672Z,81.40
2022-08-30T01:49:17.181Z,81.60
2022-08-30T01:51:46.044Z,81.70
2022-08-30T01:54:13.054Z,81.80
2022-08-30T01:56:40.347Z,81.90
2022-08-30T01:59:07.608Z,82.00
2022-08-30T02:01:37.257Z,82.20
2022-08-30T02:04:05.554Z,82.40
2022-08-30T02:06:32.942Z,82.70
2022-08-30T02:09:00.076Z,83.00
2022-08-30T02:11:27.992Z,83.50
2022-08-30T02:13:55.119Z,83.80
2022-08-30T02:16:24.027Z,84.30
2022-08-30T02:18:52.935Z,84.90
2022-08-30T02:21:20.698Z,85.50
2022-08-30T02:23:47.679Z,86.10
2022-08-30T02:26:15.965Z,86.80
2022-08-30T02:28:49.451Z,87.60
2022-08-30T02:31:20.461Z,88.20
2022-08-30T02:33:52.676Z,89.00
2022-08-30T02:36:21.171Z,89.60
2022-08-30T02:38:48.976Z,90.50
2022-08-30T02:41:17.263Z,90.60
2022-08-30T02:43:44.286Z,91.00
2022-08-30T02:46:11.440Z,91.50
2022-08-30T02:48:38.552Z,92.10
2022-08-30T02:51:09.597Z,92.70
2022-08-30T02:53:39.861Z,93.10
2022-08-30T02:56:07.309Z,93.50
2022-08-30T02:58:34.269Z,94.00
2022-08-30T03:01:01.801Z,94.40
2022-08-30T03:03:29.031Z,94.70
2022-08-30T03:05:56.000Z,94.90
2022-08-30T03:08:23.211Z,95.10
2022-08-30T03:10:50.602Z,95.60
2022-08-30T03:13:17.717Z,95.70
2022-08-30T03:15:44.780Z,95.70
2022-08-30T03:18:11.726Z,95.50
2022-08-30T03:20:39.459Z,95.90
2022-08-30T03:23:07.548Z,97.00
2022-08-30T03:25:34.624Z,98.10
2022-08-30T03:28:01.721Z,98.50
2022-08-30T03:30:29.219Z,99.80
2022-08-30T03:32:56.173Z,99.90
2022-08-30T03:35:23.321Z,99.90
2022-08-30T03:37:56.417Z,99.90
2022-08-30T03:40:23.669Z,99.90
2022-08-30T03:42:50.815Z,99.90
2022-08-30T03:45:18.938Z,99.90
2022-08-30T03:47:46.175Z,99.90
2022-08-30T03:50:14.236Z,99.90
2022-08-30T03:52:41.623Z,99.90
2022-08-30T03:55:09.102Z,99.90
2022-08-30T03:57:36.613Z,99.90
2022-08-30T04:00:05.291Z,99.90
2022-08-30T04:02:38.701Z,99.90
2022-08-30T04:05:06.559Z,99.90
2022-08-30T04:07:33.549Z,99.90
2022-08-30T04:10:00.871Z,99.90
2022-08-30T04:12:28.134Z,99.90
2022-08-30T04:14:55.115Z,99.90
2022-08-30T04:17:22.123Z,99.90
2022-08-30T04:19:49.108Z,99.90
2022-08-30T04:22:16.220Z,99.90
2022-08-30T04:24:43.228Z,99.90
2022-08-30T04:27:10.609Z,99.90
2022-08-30T04:29:37.612Z,99.90
2022-08-30T04:32:05.053Z,99.90
2022-08-30T04:34:32.068Z,99.90
2022-08-30T04:36:59.067Z,99.90
2022-08-30T04:39:26.015Z,99.90
2022-08-30T04:41:52.947Z,99.90
2022-08-30T04:44:19.955Z,99.90
2022-08-30T04:46:47.487Z,99.90
2022-08-30T04:49:14.826Z,99.90
2022-08-30T04:51:41.954Z,99.90
2022-08-30T04:54:08.941Z,99.90
2022-08-30T04:56:35.955Z,99.90
2022-08-30T04:59:03.752Z,99.90
2022-08-30T05:01:32.245Z,99.90
2022-08-30T05:04:11.661Z,99.90
2022-08-30T05:06:38.618Z,99.90
2022-08-30T05:09:05.664Z,99.90
2022-08-30T05:11:33.039Z,99.90
2022-08-30T05:14:00.003Z,99.90
2022-08-30T05:16:27.374Z,99.90
2022-08-30T05:18:54.750Z,99.90
2022-08-30T05:21:27.383Z,99.90
2022-08-30T05:23:56.659Z,99.90
2022-08-30T05:26:26.382Z,99.90
2022-08-30T05:28:53.783Z,99.90
2022-08-30T05:31:24.819Z,99.90
2022-08-30T05:33:53.078Z,99.90
2022-08-30T05:36:23.687Z,99.90
2022-08-30T05:38:50.679Z,99.90
2022-08-30T05:41:20.222Z,99.90
2022-08-30T05:43:48.561Z,99.90
2022-08-30T05:46:19.936Z,99.90
2022-08-30T05:48:47.443Z,99.90
2022-08-30T05:51:21.527Z,99.90
2022-08-30T05:53:49.835Z,99.90
2022-08-30T05:56:19.993Z,99.90
2022-08-30T05:58:48.093Z,99.90
2022-08-30T06:01:27.609Z,99.90
2022-08-30T06:04:00.346Z,99.90
2022-08-30T06:06:32.338Z,99.90
2022-08-30T06:08:59.284Z,99.90
2022-08-30T06:11:26.844Z,99.90
2022-08-30T06:13:55.296Z,99.90
2022-08-30T06:16:26.251Z,99.90
2022-08-30T06:18:55.396Z,99.90
2022-08-30T06:21:28.749Z,99.90
2022-08-30T06:23:57.042Z,99.90
2022-08-30T06:26:24.811Z,99.90
2022-08-30T06:28:52.051Z,99.10
2022-08-30T06:31:20.880Z,96.70
2022-08-30T06:33:48.165Z,93.30
2022-08-30T06:36:19.178Z,89.20
2022-08-30T06:38:47.241Z,84.00
2022-08-30T06:41:18.999Z,81.50
2022-08-30T06:43:49.020Z,80.40
2022-08-30T06:46:28.577Z,81.00
2022-08-30T06:48:57.071Z,79.50
2022-08-30T06:51:34.465Z,76.90
2022-08-30T06:54:02.991Z,72.90
2022-08-30T06:56:31.157Z,70.50
2022-08-30T06:58:58.638Z,66.50
2022-08-30T07:01:27.612Z,64.40
2022-08-30T07:03:55.670Z,61.90
2022-08-30T07:06:24.325Z,60.20
2022-08-30T07:08:56.268Z,59.70
2022-08-30T07:11:28.488Z,58.90
2022-08-30T07:13:55.607Z,57.40
2022-08-30T07:16:23.241Z,56.10
2022-08-30T07:18:56.045Z,54.70
2022-08-30T07:21:35.553Z,53.40
2022-08-30T07:24:03.407Z,52.20
2022-08-30T07:26:39.384Z,51.40
2022-08-30T07:29:06.585Z,50.20
2022-08-30T07:31:36.044Z,49.80
2022-08-30T07:34:05.158Z,49.60
2022-08-30T07:36:33.501Z,49.00
2022-08-30T07:39:00.531Z,48.80
2022-08-30T07:41:31.289Z,48.90
2022-08-30T07:43:58.956Z,49.00
2022-08-30T07:46:26.348Z,49.40
2022-08-30T07:48:55.196Z,48.70
2022-08-30T07:51:25.043Z,47.60
2022-08-30T07:53:52.859Z,46.70
2022-08-30T07:56:20.931Z,45.70
2022-08-30T07:58:48.795Z,45.30
2022-08-30T08:01:17.022Z,44.60
2022-08-30T08:03:45.386Z,43.10
2022-08-30T08:06:14.759Z,42.40
2022-08-30T08:08:42.843Z,43.10
2022-08-30T08:11:16.266Z,42.80
2022-08-30T08:13:53.036Z,43.50
2022-08-30T08:16:29.871Z,45.00
2022-08-30T08:18:57.569Z,46.10
2022-08-30T08:21:25.979Z,46.70
2022-08-30T08:23:53.247Z,48.00
2022-08-30T08:26:21.624Z,49.40
2022-08-30T08:28:48.634Z,50.70
2022-08-30T08:31:33.043Z,50.30
2022-08-30T08:34:03.160Z,48.60
2022-08-30T08:36:31.402Z,48.50
2022-08-30T08:38:58.740Z,49.00
2022-08-30T08:41:40.575Z,49.80
2022-08-30T08:44:34.236Z,50.80
2022-08-30T08:47:11.161Z,51.00
2022-08-30T08:49:39.548Z,49.40
2022-08-30T08:52:48.319Z,48.70
2022-08-30T08:55:21.000Z,49.40
2022-08-30T08:57:48.273Z,48.70
2022-08-30T09:00:15.885Z,48.00
2022-08-30T09:02:55.830Z,45.80
2022-08-30T09:05:26.125Z,45.00
2022-08-30T09:08:10.116Z,45.70
2022-08-30T09:10:50.306Z,45.80
2022-08-30T09:13:19.317Z,44.80
2022-08-30T09:15:54.842Z,44.30
2022-08-30T09:18:45.672Z,44.70
2022-08-30T09:21:20.180Z,45.10
2022-08-30T09:23:50.879Z,45.30
2022-08-30T09:26:33.219Z,45.20
2022-08-30T09:29:01.072Z,43.30
2022-08-30T09:31:32.306Z,41.50
2022-08-30T09:34:03.505Z,40.80
2022-08-30T09:36:43.848Z,39.20
2022-08-30T09:39:30.684Z,38.60
2022-08-30T09:42:13.039Z,39.70
2022-08-30T09:44:40.017Z,41.10
2022-08-30T09:47:24.804Z,41.50
2022-08-30T09:50:09.340Z,42.50
2022-08-30T09:52:50.950Z,43.90
2022-08-30T09:55:41.132Z,44.70
2022-08-30T09:58:17.353Z,43.00
2022-08-30T10:00:56.928Z,41.50
2022-08-30T10:03:40.556Z,40.10
2022-08-30T10:06:45.328Z,39.30
2022-08-30T10:09:16.108Z,38.50
2022-08-30T10:11:54.930Z,38.00
2022-08-30T10:14:33.338Z,37.40
2022-08-30T10:17:09.884Z,37.40
2022-08-30T10:19:58.230Z,37.60
2022-08-30T10:22:37.677Z,38.00
2022-08-30T10:25:23.010Z,39.20
2022-08-30T10:28:03.259Z,40.30
2022-08-30T10:30:34.876Z,40.60
2022-08-30T10:33:16.883Z,40.60
2022-08-30T10:35:50.944Z,39.60
2022-08-30T10:38:29.557Z,39.90
2022-08-30T10:41:15.085Z,39.70
2022-08-30T10:43:50.985Z,39.40
2022-08-30T10:47:02.642Z,39.50
2022-08-30T10:49:34.883Z,38.30
2022-08-30T10:52:26.189Z,37.50
2022-08-30T10:54:59.644Z,35.60
2022-08-30T10:57:27.647Z,35.40
2022-08-30T11:00:06.014Z,35.10
2022-08-30T11:02:47.978Z,34.20
2022-08-30T11:05:24.177Z,33.90
2022-08-30T11:07:58.625Z,34.60
2022-08-30T11:10:50.950Z,34.90
2022-08-30T11:13:30.493Z,34.90
2022-08-30T11:16:03.578Z,35.40
2022-08-30T11:21:41.008Z,36.50
2022-08-30T11:24:11.701Z,36.10
2022-08-30T11:26:48.477Z,36.40
2022-08-30T11:29:29.805Z,35.80
2022-08-30T11:32:13.975Z,35.70
2022-08-30T11:34:48.910Z,35.70
2022-08-30T11:37:40.685Z,35.70
2022-08-30T11:40:26.266Z,35.60
2022-08-30T11:42:56.149Z,34.70
2022-08-30T11:45:25.295Z,34.20
2022-08-30T11:47:52.703Z,34.00
2022-08-30T11:50:26.433Z,35.00
2022-08-30T11:53:02.045Z,35.40
2022-08-30T11:55:49.526Z,35.90
2022-08-30T11:58:48.143Z,36.60
2022-08-30T12:01:49.832Z,38.10
2022-08-30T12:04:17.132Z,39.40
2022-08-30T12:06:49.843Z,40.40
2022-08-30T12:09:26.425Z,40.40
2022-08-30T12:12:04.747Z,40.10
2022-08-30T12:14:52.701Z,40.10
2022-08-30T12:17:43.022Z,40.30
2022-08-30T12:20:39.070Z,40.00
2022-08-30T12:23:23.751Z,39.70
2022-08-30T12:26:08.473Z,38.70
2022-08-30T12:28:38.859Z,38.70
2022-08-30T12:31:21.684Z,38.30
2022-08-30T12:33:55.532Z,38.30
2022-08-30T12:36:36.662Z,37.50
2022-08-30T12:39:30.372Z,36.20
2022-08-30T12:42:31.229Z,34.80
2022-08-30T12:45:01.913Z,34.90
2022-08-30T12:47:30.971Z,35.80
2022-08-30T12:49:58.900Z,36.70
2022-08-30T12:52:39.805Z,37.20
2022-08-30T12:55:19.390Z,36.80
2022-08-30T12:58:01.349Z,36.50
2022-08-30T13:00:46.724Z,37.00
2022-08-30T13:03:32.956Z,38.30
2022-08-30T13:06:00.125Z,38.80
2022-08-30T13:08:45.806Z,39.70
2022-08-30T13:11:29.697Z,39.90
2022-08-30T13:14:30.002Z,40.00
2022-08-30T13:17:13.794Z,39.80
2022-08-30T13:19:43.336Z,40.30
2022-08-30T13:22:29.457Z,39.90
2022-08-30T13:24:58.093Z,38.80
2022-08-30T13:27:26.225Z,38.30
2022-08-30T13:29:53.260Z,38.10
2022-08-30T13:32:20.399Z,37.90
2022-08-30T13:34:47.424Z,37.20
2022-08-30T13:40:13.469Z,36.70
2022-08-30T13:42:42.803Z,36.00
2022-08-30T13:47:59.829Z,36.30
2022-08-30T13:50:26.870Z,37.50
2022-08-30T13:52:54.474Z,38.10
2022-08-30T13:55:21.688Z,38.70
2022-08-30T13:57:57.373Z,39.80
2022-08-30T14:00:25.837Z,40.00
2022-08-30T14:02:57.192Z,40.20
2022-08-30T14:05:48.951Z,39.70
2022-08-30T14:11:07.512Z,40.90
2022-08-30T14:13:34.560Z,42.10
2022-08-30T14:18:53.388Z,41.90
2022-08-30T14:21:21.325Z,42.00
2022-08-30T14:23:52.337Z,42.30
2022-08-30T14:26:32.517Z,42.40
2022-08-30T14:29:02.179Z,42.30
2022-08-30T14:31:32.521Z,42.00
2022-08-30T14:34:04.187Z,42.30
2022-08-30T14:36:33.410Z,42.30
2022-08-30T14:39:00.753Z,42.10
2022-08-30T14:41:27.831Z,41.90
2022-08-30T14:43:54.831Z,41.60
2022-08-30T14:46:24.719Z,41.80
2022-08-30T14:48:54.041Z,42.00
2022-08-30T14:51:23.039Z,42.20
2022-08-30T14:53:54.604Z,42.70
2022-08-30T14:56:23.390Z,42.90
2022-08-30T14:58:53.810Z,43.30
2022-08-30T15:01:22.667Z,43.80
2022-08-30T15:03:49.739Z,44.50
2022-08-30T15:06:18.646Z,45.30
2022-08-30T15:08:48.346Z,45.70
2022-08-30T15:11:18.781Z,45.70
2022-08-30T15:13:46.789Z,45.90
2022-08-30T15:16:17.753Z,46.30
2022-08-30T15:18:44.934Z,46.80
2022-08-30T15:21:11.995Z,46.90
2022-08-30T15:23:39.485Z,47.50
2022-08-30T15:26:08.144Z,48.00
2022-08-30T15:28:36.753Z,48.20
2022-08-30T15:31:08.527Z,48.50
2022-08-30T15:33:37.526Z,48.60
2022-08-30T15:36:05.913Z,49.30
2022-08-30T15:38:33.403Z,49.50
2022-08-30T15:41:04.158Z,49.70
2022-08-30T15:43:31.699Z,49.70
2022-08-30T15:46:20.128Z,49.60
2022-08-30T15:48:47.539Z,50.30
2022-08-30T15:51:16.784Z,51.10
2022-08-30T15:53:45.287Z,51.90
2022-08-30T15:56:12.356Z,52.00
2022-08-30T15:58:40.664Z,52.10
2022-08-30T16:01:09.000Z,52.40
2022-08-30T16:03:37.839Z,53.10
2022-08-30T16:06:13.932Z,53.40
2022-08-30T16:08:41.573Z,53.50
2022-08-30T16:11:10.408Z,54.00
2022-08-30T16:13:37.797Z,54.40
2022-08-30T16:16:07.214Z,55.00
2022-08-30T16:18:35.856Z,55.60
2022-08-30T16:21:14.967Z,56.00
2022-08-30T16:23:44.080Z,56.30
2022-08-30T16:26:15.697Z,56.40
2022-08-30T16:28:45.752Z,56.20
2022-08-30T16:31:13.739Z,56.40
2022-08-30T16:33:43.830Z,56.60
2022-08-30T16:36:12.584Z,56.90
2022-08-30T16:38:40.725Z,57.20
2022-08-30T16:41:11.223Z,57.50
2022-08-30T16:43:40.102Z,57.50
2022-08-30T16:46:10.039Z,57.80
2022-08-30T16:48:39.413Z,58.00
2022-08-30T16:51:10.390Z,58.30
2022-08-30T16:53:38.292Z,58.70
2022-08-30T16:56:11.995Z,59.60
2022-08-30T16:58:39.043Z,60.50
2022-08-30T17:01:06.789Z,61.00
2022-08-30T17:03:34.166Z,61.60
2022-08-30T17:06:01.480Z,62.00
2022-08-30T17:08:31.006Z,62.50
2022-08-30T17:10:58.843Z,62.70
2022-08-30T17:13:26.038Z,63.20
2022-08-30T17:15:53.197Z,63.50
2022-08-30T17:18:20.274Z,64.50
2022-08-30T17:20:47.442Z,65.20
2022-08-30T17:23:14.932Z,65.70
2022-08-30T17:25:43.267Z,66.20
2022-08-30T17:28:11.067Z,66.80
2022-08-30T17:30:38.215Z,67.00
2022-08-30T17:33:06.517Z,67.40
2022-08-30T17:35:33.475Z,67.90
2022-08-30T17:38:00.631Z,68.30
2022-08-30T17:40:28.562Z,68.40
2022-08-30T17:42:55.593Z,68.70
2022-08-30T17:45:23.067Z,68.80
2022-08-30T17:47:50.765Z,68.90
2022-08-30T17:50:19.534Z,68.50
2022-08-30T17:52:47.208Z,68.40
2022-08-30T17:55:14.675Z,68.00
2022-08-30T17:57:41.883Z,68.10
2022-08-30T18:00:15.668Z,68.40
2022-08-30T18:02:43.140Z,68.90
2022-08-30T18:05:10.390Z,69.40
2022-08-30T18:07:37.737Z,70.00
2022-08-30T18:10:05.588Z,70.50
2022-08-30T18:12:33.679Z,70.80
2022-08-30T18:15:01.081Z,71.20
2022-08-30T18:17:29.386Z,71.90
2022-08-30T18:19:57.951Z,72.90
2022-08-30T18:22:25.117Z,73.70
2022-08-30T18:24:52.308Z,74.10
2022-08-30T18:27:19.462Z,75.30
2022-08-30T18:29:46.703Z,76.30
2022-08-30T18:32:13.696Z,76.50
2022-08-30T18:34:42.703Z,76.90
2022-08-30T18:37:11.653Z,77.10
2022-08-30T18:39:39.898Z,77.40
2022-08-30T18:42:08.552Z,77.70
2022-08-30T18:44:37.311Z,77.80
2022-08-30T18:47:05.795Z,78.20
2022-08-30T18:49:34.640Z,78.40
2022-08-30T18:52:03.832Z,78.40
2022-08-30T18:54:31.094Z,78.50
2022-08-30T18:56:58.179Z,78.50
2022-08-30T18:59:35.364Z,78.50
2022-08-30T19:02:15.433Z,78.40
2022-08-30T19:04:45.177Z,78.40
2022-08-30T19:07:14.874Z,78.40
2022-08-30T19:09:43.192Z,78.50
2022-08-30T19:12:11.452Z,78.60
2022-08-30T19:14:39.379Z,78.60
2022-08-30T19:17:07.613Z,78.50
2022-08-30T19:19:46.493Z,78.30
2022-08-30T19:22:16.358Z,78.60
2022-08-30T19:24:43.577Z,79.70
2022-08-30T19:27:11.190Z,79.30
2022-08-30T19:29:39.230Z,79.60
2022-08-30T19:32:06.443Z,79.90
2022-08-30T19:34:33.535Z,80.10
2022-08-30T19:37:02.411Z,81.20
2022-08-30T19:39:29.944Z,81.40
2022-08-30T19:41:58.262Z,80.50
2022-08-30T19:44:30.860Z,80.50
2022-08-30T19:46:59.628Z,80.70
2022-08-30T19:49:26.619Z,80.80
2022-08-30T19:51:53.745Z,80.80
2022-08-30T19:54:22.395Z,80.90
2022-08-30T19:56:49.886Z,81.00
2022-08-30T19:59:18.470Z,81.10
2022-08-30T20:01:46.132Z,81.40
2022-08-30T20:04:13.591Z,81.60
2022-08-30T20:06:42.000Z,81.70
2022-08-30T20:09:10.441Z,82.00
2022-08-30T20:11:38.950Z,82.40
2022-08-30T20:14:07.200Z,82.60
2022-08-30T20:16:37.724Z,82.80
2022-08-30T20:19:07.685Z,82.80
2022-08-30T20:21:35.597Z,82.90
2022-08-30T20:24:03.985Z,82.90
2022-08-30T20:26:34.442Z,83.00
2022-08-30T20:29:03.300Z,83.20
2022-08-30T20:31:30.566Z,83.50
2022-08-30T20:33:57.943Z,83.80
2022-08-30T20:36:24.956Z,84.10
2022-08-30T20:38:52.048Z,84.30
2022-08-30T20:41:19.192Z,84.60
2022-08-30T20:43:48.396Z,84.70
2022-08-30T20:46:19.414Z,84.70
2022-08-30T20:48:50.152Z,84.70
2022-08-30T20:51:19.996Z,84.70
2022-08-30T20:53:47.200Z,84.70
2022-08-30T20:56:17.618Z,84.60
2022-08-30T20:58:45.175Z,84.60
2022-08-30T21:01:14.095Z,85.50
2022-08-30T21:03:42.328Z,85.10
2022-08-30T21:06:11.650Z,85.50
2022-08-30T21:08:39.827Z,85.50
2022-08-30T21:11:06.948Z,85.40
2022-08-30T21:13:33.940Z,85.20
2022-08-30T21:16:03.621Z,85.20
2022-08-30T21:18:33.038Z,85.20
2022-08-30T21:21:07.808Z,85.90
2022-08-30T21:23:35.960Z,85.20
2022-08-30T21:26:10.127Z,85.70
2022-08-30T21:28:37.218Z,86.30
2022-08-30T21:31:05.356Z,86.50
2022-08-30T21:33:32.390Z,86.90
2022-08-30T21:36:32.253Z,87.00
2022-08-30T21:39:00.777Z,87.50
2022-08-30T21:41:29.341Z,87.80
2022-08-30T21:44:01.843Z,88.20
2022-08-30T21:46:30.443Z,88.60
2022-08-30T21:49:01.051Z,89.20
2022-08-30T21:51:32.156Z,90.00
2022-08-30T21:53:59.512Z,90.20
2022-08-30T21:56:26.514Z,90.60
2022-08-30T21:58:54.684Z,90.80
2022-08-30T22:01:24.904Z,91.00
2022-08-30T22:03:53.987Z,91.40
2022-08-30T22:06:21.767Z,91.60
2022-08-30T22:08:52.493Z,91.80
2022-08-30T22:11:23.208Z,92.10
2022-08-30T22:13:51.716Z,92.90
2022-08-30T22:16:21.020Z,92.70
2022-08-30T22:18:49.042Z,92.80
2022-08-30T22:21:19.737Z,92.80
2022-08-30T22:23:46.985Z,92.80
2022-08-30T22:26:16.134Z,92.80
2022-08-30T22:28:43.370Z,93.00
2022-08-30T22:31:12.827Z,93.20
2022-08-30T22:33:40.528Z,93.30
2022-08-30T22:36:16.987Z,93.40
2022-08-30T22:38:44.488Z,93.50
2022-08-30T22:41:15.053Z,93.70
2022-08-30T22:43:42.093Z,93.70
2022-08-30T22:46:11.328Z,93.80
2022-08-30T22:48:41.143Z,93.70
2022-08-30T22:51:08.522Z,93.60
2022-08-30T22:53:36.020Z,93.50
2022-08-30T22:56:11.062Z,93.50
2022-08-30T22:58:38.382Z,93.30
2022-08-30T23:01:05.864Z,93.20
2022-08-30T23:03:35.288Z,93.20
2022-08-30T23:06:02.776Z,93.10
2022-08-30T23:08:29.793Z,93.00
2022-08-30T23:10:57.978Z,92.90
2022-08-30T23:13:25.060Z,92.90
2022-08-30T23:15:52.058Z,92.90
2022-08-30T23:18:19.029Z,92.90
2022-08-30T23:20:45.995Z,92.80
2022-08-30T23:23:31.744Z,92.80
2022-08-30T23:26:20.743Z,92.80
2022-08-30T23:29:06.061Z,92.70
2022-08-30T23:31:51.552Z,92.50
2022-08-30T23:34:37.196Z,92.30
2022-08-30T23:37:22.596Z,92.00
2022-08-30T23:40:07.984Z,91.90
2022-08-30T23:42:53.479Z,91.70
2022-08-30T23:45:38.930Z,91.60
2022-08-30T23:48:24.440Z,91.50
2022-08-30T23:51:09.615Z,91.40
2022-08-30T23:53:58.126Z,91.30
2022-08-30T23:56:43.648Z,91.50
2022-08-30T23:59:29.065Z,91.50
